createdAt,value
2018-09-06T00:04:37.527Z,7.17
2018-09-06T00:09:40.819Z,7.70
2018-09-06T00:14:44.109Z,10.07
2018-09-06T00:19:47.405Z,7.10
2018-09-06T00:24:50.683Z,10.73
2018-09-06T00:29:54.013Z,8.20
2018-09-06T00:34:57.339Z,8.00
2018-09-06T00:40:00.618Z,8.67
2018-09-06T00:45:04.285Z,7.73
2018-09-06T00:50:12.886Z,8.00
2018-09-06T00:55:16.540Z,8.60
2018-09-06T01:00:19.880Z,8.13
2018-09-06T01:05:23.280Z,10.60
2018-09-06T01:10:26.701Z,8.93
2018-09-06T01:15:29.976Z,8.13
2018-09-06T01:20:33.566Z,15.63
2018-09-06T01:25:42.421Z,8.03
2018-09-06T01:30:45.913Z,8.30
2018-09-06T01:35:54.789Z,8.60
2018-09-06T01:40:58.380Z,8.23
2018-09-06T01:46:02.038Z,10.20
2018-09-06T01:51:05.585Z,9.37
2018-09-06T01:56:09.159Z,8.57
2018-09-06T02:01:12.707Z,9.67
2018-09-06T02:06:16.286Z,7.30
2018-09-06T02:11:19.896Z,8.80
2018-09-06T02:16:23.538Z,10.50
2018-09-06T02:21:27.025Z,8.30
2018-09-06T02:31:39.940Z,7.83
2018-09-06T02:36:43.522Z,8.53
2018-09-06T02:41:47.205Z,11.13
2018-09-06T02:46:50.777Z,10.13
2018-09-06T02:51:54.353Z,8.00
2018-09-06T02:56:57.883Z,8.70
2018-09-06T03:02:01.444Z,9.23
2018-09-06T03:07:04.951Z,10.90
2018-09-06T03:12:09.630Z,9.23
2018-09-06T03:17:13.297Z,9.40
2018-09-06T03:22:16.949Z,10.40
2018-09-06T03:27:20.676Z,9.07
2018-09-06T03:32:24.141Z,8.80
2018-09-06T03:37:27.753Z,9.10
2018-09-06T03:42:31.321Z,9.50
2018-09-06T03:47:36.517Z,10.77
2018-09-06T03:52:40.633Z,8.93
2018-09-06T03:57:44.262Z,7.40
2018-09-06T04:02:47.775Z,8.67
2018-09-06T04:07:51.513Z,8.53
2018-09-06T04:12:54.996Z,8.67
2018-09-06T04:18:02.428Z,9.00
2018-09-06T04:23:23.608Z,8.80
2018-09-06T04:28:29.462Z,9.20
2018-09-06T04:33:46.295Z,8.50
2018-09-06T04:38:59.166Z,8.53
2018-09-06T04:44:02.814Z,13.30
2018-09-06T04:49:06.537Z,9.73
2018-09-06T04:54:41.057Z,11.73
2018-09-06T04:59:46.001Z,9.17
2018-09-06T05:04:50.248Z,10.97
2018-09-06T05:09:53.930Z,12.37
2018-09-06T05:14:58.753Z,12.80
2018-09-06T05:20:03.905Z,12.90
2018-09-06T05:25:07.341Z,11.40
2018-09-06T05:30:10.777Z,13.10
2018-09-06T05:35:14.556Z,10.80
2018-09-06T05:40:18.277Z,10.80
2018-09-06T05:45:21.697Z,10.80
2018-09-06T05:50:26.676Z,16.93
2018-09-06T05:55:30.080Z,9.97
2018-09-06T06:00:38.934Z,12.97
2018-09-06T06:05:44.879Z,11.27
2018-09-06T06:10:48.394Z,15.90
2018-09-06T06:15:52.075Z,12.53
2018-09-06T06:20:55.490Z,14.37
2018-09-06T06:25:59.041Z,15.80
2018-09-06T06:31:02.444Z,12.67
2018-09-06T06:36:06.024Z,14.63
2018-09-06T06:41:09.420Z,15.73
2018-09-06T06:46:12.904Z,20.97
2018-09-06T06:51:16.341Z,21.33
2018-09-06T06:56:19.841Z,16.93
2018-09-06T07:01:23.129Z,19.10
2018-09-06T07:06:26.397Z,15.30
2018-09-06T07:11:30.780Z,15.17
2018-09-06T07:16:34.198Z,17.10
2018-09-06T07:21:37.569Z,13.23
2018-09-06T07:26:40.963Z,16.30
2018-09-06T07:31:44.347Z,15.40
2018-09-06T07:36:47.820Z,14.23
2018-09-06T07:41:51.214Z,13.37
2018-09-06T07:46:54.610Z,15.03
2018-09-06T07:51:57.998Z,13.60
2018-09-06T07:57:01.461Z,10.70
2018-09-06T08:02:05.753Z,12.00
2018-09-06T08:07:09.215Z,15.17
2018-09-06T08:12:12.851Z,14.30
2018-09-06T08:17:16.163Z,12.93
2018-09-06T08:22:19.536Z,12.03
2018-09-06T08:27:22.926Z,14.33
2018-09-06T08:32:26.328Z,9.93
2018-09-06T08:37:29.746Z,12.23
2018-09-06T08:42:33.120Z,23.03
2018-09-06T08:47:36.595Z,11.43
2018-09-06T08:52:39.956Z,8.97
2018-09-06T08:57:43.400Z,12.37
2018-09-06T09:02:46.953Z,12.77
2018-09-06T09:07:50.248Z,9.73
2018-09-06T09:12:53.625Z,12.57
2018-09-06T09:17:57.046Z,10.33
2018-09-06T09:23:00.447Z,9.30
2018-09-06T09:28:03.709Z,12.70
2018-09-06T09:33:07.225Z,11.43
2018-09-06T09:38:10.612Z,11.00
2018-09-06T09:43:13.882Z,14.53
2018-09-06T09:48:17.135Z,16.73
2018-09-06T09:53:20.404Z,16.47
2018-09-06T09:58:23.743Z,8.70
2018-09-06T10:03:33.003Z,10.70
2018-09-06T10:08:41.701Z,7.87
2018-09-06T10:13:45.054Z,8.83
2018-09-06T10:18:48.484Z,9.60
2018-09-06T10:23:55.288Z,6.90
2018-09-06T10:28:58.638Z,8.60
2018-09-06T10:34:02.077Z,7.93
2018-09-06T10:39:07.849Z,8.13
2018-09-06T10:44:11.248Z,7.40
2018-09-06T10:49:14.620Z,7.37
2018-09-06T10:54:18.213Z,7.97
2018-09-06T10:59:21.469Z,7.67
2018-09-06T11:04:25.110Z,5.43
2018-09-06T11:09:28.534Z,6.33
2018-09-06T11:14:32.009Z,14.50
2018-09-06T11:19:35.393Z,6.63
2018-09-06T11:24:38.785Z,6.43
2018-09-06T11:29:42.232Z,7.07
2018-09-06T11:34:45.624Z,6.30
2018-09-06T11:39:49.022Z,7.60
2018-09-06T11:44:52.326Z,6.57
2018-09-06T11:49:55.633Z,8.57
2018-09-06T11:54:59.066Z,6.37
2018-09-06T12:00:02.473Z,7.37
2018-09-06T12:05:05.878Z,8.07
2018-09-06T12:10:09.285Z,6.73
2018-09-06T12:15:12.664Z,6.23
2018-09-06T12:20:16.248Z,10.00
2018-09-06T12:25:19.581Z,7.00
2018-09-06T12:30:23.551Z,7.47
2018-09-06T12:35:27.048Z,7.00
2018-09-06T12:40:30.441Z,10.50
2018-09-06T12:45:33.808Z,10.87
2018-09-06T12:50:37.064Z,14.10
2018-09-06T12:55:40.792Z,10.33
2018-09-06T13:00:44.056Z,8.47
2018-09-06T13:05:47.255Z,11.47
2018-09-06T13:10:50.632Z,11.63
2018-09-06T13:15:53.908Z,8.73
2018-09-06T13:20:57.193Z,10.70
2018-09-06T13:26:00.443Z,9.63
2018-09-06T13:31:03.732Z,11.63
2018-09-06T13:36:06.975Z,11.30
2018-09-06T13:41:10.223Z,9.90
2018-09-06T13:46:13.469Z,9.50
2018-09-06T13:51:16.717Z,15.90
2018-09-06T13:56:20.024Z,7.23
2018-09-06T14:01:23.320Z,10.73
2018-09-06T14:06:26.689Z,10.57
2018-09-06T14:11:29.992Z,14.33
2018-09-06T14:16:33.263Z,12.50
2018-09-06T14:21:36.493Z,12.43
2018-09-06T14:26:39.996Z,9.60
2018-09-06T14:31:43.525Z,8.27
2018-09-06T14:36:46.875Z,14.50
2018-09-06T14:41:50.198Z,17.63
2018-09-06T14:46:53.809Z,14.17
2018-09-06T14:51:57.153Z,18.07
2018-09-06T14:57:00.504Z,11.77
2018-09-06T15:02:03.833Z,13.37
2018-09-06T15:07:07.137Z,17.10
2018-09-06T15:12:10.436Z,17.90
2018-09-06T15:17:20.300Z,14.83
2018-09-06T15:22:24.521Z,15.17
2018-09-06T15:27:27.826Z,22.60
2018-09-06T15:32:31.703Z,12.47
2018-09-06T15:37:35.026Z,12.40
2018-09-06T15:42:38.328Z,17.00
2018-09-06T15:47:41.559Z,18.80
2018-09-06T15:52:44.836Z,26.80
2018-09-06T15:57:48.073Z,25.70
2018-09-06T16:02:51.304Z,27.87
2018-09-06T16:07:54.589Z,20.17
2018-09-06T16:12:57.823Z,12.27
2018-09-06T16:18:02.044Z,13.30
2018-09-06T16:23:06.331Z,9.43
2018-09-06T16:28:10.389Z,15.30
2018-09-06T16:33:13.622Z,14.00
2018-09-06T16:38:16.945Z,10.53
2018-09-06T16:43:20.151Z,12.37
2018-09-06T16:48:23.388Z,8.97
2018-09-06T16:53:26.635Z,8.53
2018-09-06T16:58:29.886Z,11.17
2018-09-06T17:03:33.128Z,10.53
2018-09-06T17:08:36.376Z,9.10
2018-09-06T17:13:39.634Z,8.87
2018-09-06T17:18:42.955Z,9.73
2018-09-06T17:23:46.183Z,8.63
2018-09-06T17:28:49.479Z,10.53
2018-09-06T17:33:52.726Z,13.23
2018-09-06T17:38:56.069Z,12.03
2018-09-06T17:43:59.273Z,11.50
2018-09-06T17:49:02.721Z,11.03
2018-09-06T17:54:06.047Z,10.50
2018-09-06T17:59:09.296Z,14.73
2018-09-06T18:04:12.524Z,12.87
2018-09-06T18:09:15.817Z,13.30
2018-09-06T18:14:19.072Z,12.70
2018-09-06T18:19:22.427Z,12.00
2018-09-06T18:24:25.727Z,10.87
2018-09-06T18:29:28.974Z,14.33
2018-09-06T18:34:32.255Z,17.27
2018-09-06T18:39:35.595Z,15.67
2018-09-06T18:44:38.839Z,17.33
2018-09-06T18:49:42.174Z,17.70
2018-09-06T18:54:45.392Z,17.70
2018-09-06T18:59:48.637Z,17.57
2018-09-06T19:04:52.199Z,20.40
2018-09-06T19:09:55.460Z,18.40
2018-09-06T19:14:58.744Z,21.70
2018-09-06T19:20:02.321Z,20.80
2018-09-06T19:25:05.571Z,19.90
2018-09-06T19:30:13.267Z,18.70
2018-09-06T19:35:18.806Z,20.47
2018-09-06T19:40:22.268Z,16.53
2018-09-06T19:45:25.583Z,19.90
2018-09-06T19:50:28.824Z,18.20
2018-09-06T19:55:32.070Z,17.47
2018-09-06T20:00:35.428Z,18.50
2018-09-06T20:05:38.667Z,25.47
2018-09-06T20:10:41.932Z,26.47
2018-09-06T20:15:45.281Z,28.93
2018-09-06T20:20:48.523Z,24.87
2018-09-06T20:25:51.772Z,27.07
2018-09-06T20:30:55.034Z,30.20
2018-09-06T20:35:58.308Z,32.30
2018-09-06T20:41:01.558Z,31.57
2018-09-06T20:46:05.217Z,32.20
2018-09-06T20:51:08.473Z,35.67
2018-09-06T20:56:11.755Z,34.27
2018-09-06T21:01:15.009Z,32.13
2018-09-06T21:06:18.290Z,30.03
2018-09-06T21:11:21.551Z,34.33
2018-09-06T21:16:24.889Z,37.30
2018-09-06T21:21:28.091Z,43.20
2018-09-06T21:26:31.352Z,45.63
2018-09-06T21:31:34.612Z,47.30
2018-09-06T21:36:37.852Z,45.63
2018-09-06T21:41:42.220Z,45.60
2018-09-06T21:46:45.476Z,46.33
2018-09-06T21:51:48.716Z,37.70
2018-09-06T21:56:51.959Z,37.97
2018-09-06T22:01:55.218Z,33.43
2018-09-06T22:06:58.471Z,31.60
2018-09-06T22:12:01.724Z,28.57
2018-09-06T22:17:04.999Z,28.10
2018-09-06T22:22:08.234Z,19.63
2018-09-06T22:27:11.547Z,20.40
2018-09-06T22:32:14.767Z,18.90
2018-09-06T22:37:18.038Z,16.43
2018-09-06T22:42:21.272Z,17.20
2018-09-06T22:47:24.510Z,12.90
2018-09-06T22:52:28.044Z,11.37
2018-09-06T22:57:31.284Z,11.57
2018-09-06T23:02:39.843Z,10.03
2018-09-06T23:07:43.115Z,10.27
2018-09-06T23:12:46.355Z,11.50
2018-09-06T23:17:49.623Z,8.40
2018-09-06T23:22:52.904Z,9.60
2018-09-06T23:27:56.156Z,9.07
2018-09-06T23:32:59.408Z,7.80
2018-09-06T23:38:02.644Z,11.57
2018-09-06T23:43:05.936Z,6.07
2018-09-06T23:48:09.204Z,7.33
2018-09-06T23:53:12.464Z,8.47
2018-09-06T23:58:15.776Z,6.73
